createdAt,value
2018-11-22T00:01:31.503Z,94.91
2018-11-22T00:04:02.849Z,95.39
2018-11-22T00:06:34.011Z,95.03
2018-11-22T00:09:09.267Z,94.14
2018-11-22T00:11:40.773Z,93.52
2018-11-22T00:14:11.829Z,92.11
2018-11-22T00:16:42.904Z,92.30
2018-11-22T00:19:13.975Z,94.38
2018-11-22T00:21:44.974Z,94.70
2018-11-22T00:24:16.029Z,94.22
2018-11-22T00:26:47.117Z,93.15
2018-11-22T00:29:18.176Z,91.88
2018-11-22T00:31:49.371Z,91.34
2018-11-22T00:34:20.613Z,91.94
2018-11-22T00:36:51.693Z,93.08
2018-11-22T00:39:22.858Z,92.82
2018-11-22T00:41:53.840Z,94.63
2018-11-22T00:44:24.894Z,95.28
2018-11-22T00:46:55.954Z,93.82
2018-11-22T00:49:27.123Z,92.63
2018-11-22T00:51:58.279Z,93.67
2018-11-22T00:54:29.422Z,94.85
2018-11-22T00:57:00.479Z,95.33
2018-11-22T00:59:31.570Z,95.83
2018-11-22T01:02:02.787Z,93.88
2018-11-22T01:04:33.727Z,93.25
2018-11-22T01:07:04.917Z,94.79
2018-11-22T01:09:36.006Z,94.75
2018-11-22T01:12:07.345Z,94.31
2018-11-22T01:14:38.311Z,94.53
2018-11-22T01:17:09.437Z,95.10
2018-11-22T01:19:41.836Z,95.58
2018-11-22T01:22:13.016Z,93.22
2018-11-22T01:24:44.160Z,92.86
2018-11-22T01:27:15.345Z,93.30
2018-11-22T01:29:46.486Z,93.36
2018-11-22T01:32:17.741Z,93.79
2018-11-22T01:34:48.915Z,93.53
2018-11-22T01:37:21.186Z,92.56
2018-11-22T01:39:52.407Z,93.08
2018-11-22T01:42:23.625Z,94.06
2018-11-22T01:44:54.920Z,94.70
2018-11-22T01:47:26.232Z,95.04
2018-11-22T01:49:57.511Z,95.35
2018-11-22T01:52:28.738Z,96.05
2018-11-22T01:55:00.085Z,95.86
2018-11-22T01:57:31.249Z,95.01
2018-11-22T02:00:02.476Z,95.86
2018-11-22T02:02:33.658Z,94.62
2018-11-22T02:05:05.062Z,94.56
2018-11-22T02:07:36.246Z,94.52
2018-11-22T02:10:09.888Z,94.47
2018-11-22T02:12:41.262Z,92.56
2018-11-22T02:15:31.177Z,93.24
2018-11-22T02:18:02.408Z,93.45
2018-11-22T02:20:33.596Z,93.85
2018-11-22T02:23:04.815Z,93.44
2018-11-22T02:25:37.343Z,93.48
2018-11-22T02:28:09.367Z,93.68
2018-11-22T02:30:40.564Z,95.02
2018-11-22T02:33:11.869Z,94.07
2018-11-22T02:35:43.099Z,92.79
2018-11-22T02:38:14.402Z,94.27
2018-11-22T02:40:45.586Z,93.43
2018-11-22T02:43:16.774Z,92.11
2018-11-22T02:45:48.038Z,92.92
2018-11-22T02:48:19.223Z,92.10
2018-11-22T02:50:50.497Z,93.32
2018-11-22T02:53:21.705Z,93.54
2018-11-22T02:55:52.879Z,92.83
2018-11-22T02:58:24.154Z,93.12
2018-11-22T03:00:55.361Z,92.52
2018-11-22T03:03:26.633Z,93.32
2018-11-22T03:05:57.876Z,93.64
2018-11-22T03:08:29.146Z,93.79
2018-11-22T03:11:00.363Z,93.77
2018-11-22T03:13:31.543Z,94.13
2018-11-22T03:16:02.834Z,93.73
2018-11-22T03:18:34.190Z,93.93
2018-11-22T03:21:05.465Z,94.60
2018-11-22T03:23:36.672Z,94.29
2018-11-22T03:26:08.043Z,94.37
2018-11-22T03:28:39.226Z,94.62
2018-11-22T03:31:10.426Z,94.85
2018-11-22T03:33:41.642Z,94.37
2018-11-22T03:36:14.077Z,94.14
2018-11-22T03:38:45.259Z,93.98
2018-11-22T03:41:16.425Z,93.99
2018-11-22T03:43:47.523Z,94.84
2018-11-22T03:46:18.699Z,95.63
2018-11-22T03:48:49.875Z,96.08
2018-11-22T03:51:21.029Z,94.81
2018-11-22T03:53:53.445Z,94.96
2018-11-22T03:56:24.622Z,95.46
2018-11-22T03:58:55.809Z,95.63
2018-11-22T04:01:27.119Z,96.54
2018-11-22T04:03:58.446Z,95.62
2018-11-22T04:06:29.617Z,95.41
2018-11-22T04:09:00.948Z,96.61
2018-11-22T04:11:33.074Z,96.08
2018-11-22T04:14:04.249Z,96.17
2018-11-22T04:16:35.433Z,96.42
2018-11-22T04:19:06.740Z,96.64
2018-11-22T04:21:43.452Z,97.12
2018-11-22T04:24:15.082Z,96.03
2018-11-22T04:26:46.307Z,95.93
2018-11-22T04:29:17.529Z,96.21
2018-11-22T04:31:48.831Z,96.79
2018-11-22T04:34:20.009Z,97.02
2018-11-22T04:36:51.192Z,96.00
2018-11-22T04:39:22.398Z,97.06
2018-11-22T04:41:53.715Z,97.52
2018-11-22T04:44:24.937Z,97.22
2018-11-22T04:46:56.172Z,96.94
2018-11-22T04:49:27.738Z,97.40
2018-11-22T04:51:58.907Z,96.87
2018-11-22T04:54:30.183Z,97.46
2018-11-22T04:57:01.425Z,97.38
2018-11-22T04:59:32.782Z,97.70
2018-11-22T05:02:04.066Z,97.30
2018-11-22T05:04:36.508Z,97.73
2018-11-22T05:07:07.981Z,97.70
2018-11-22T05:09:39.073Z,99.52
2018-11-22T05:12:10.395Z,98.11
2018-11-22T05:14:41.595Z,97.28
2018-11-22T05:17:12.781Z,96.79
2018-11-22T05:19:43.980Z,96.78
2018-11-22T05:22:15.198Z,97.05
2018-11-22T05:24:47.053Z,97.33
2018-11-22T05:27:18.245Z,96.63
2018-11-22T05:29:49.470Z,96.40
2018-11-22T05:32:20.681Z,95.25
2018-11-22T05:34:51.804Z,96.68
2018-11-22T05:37:23.077Z,97.72
2018-11-22T05:39:54.288Z,96.35
2018-11-22T05:42:25.997Z,96.88
2018-11-22T05:44:57.199Z,96.66
2018-11-22T05:47:28.304Z,96.06
2018-11-22T05:49:59.689Z,96.56
2018-11-22T05:52:30.876Z,97.91
2018-11-22T05:55:02.169Z,96.93
2018-11-22T05:57:33.404Z,97.45
2018-11-22T06:00:05.292Z,98.53
2018-11-22T06:02:36.499Z,98.67
2018-11-22T06:05:09.011Z,99.17
2018-11-22T06:07:40.297Z,99.08
2018-11-22T06:10:15.264Z,97.10
2018-11-22T06:12:46.683Z,97.34
2018-11-22T06:15:18.122Z,97.12
2018-11-22T06:17:49.946Z,96.80
2018-11-22T06:20:22.642Z,97.85
2018-11-22T06:22:55.592Z,99.54
2018-11-22T06:25:26.815Z,100.00
2018-11-22T06:27:58.495Z,100.00
2018-11-22T06:30:31.238Z,100.00
2018-11-22T06:33:03.425Z,100.00
2018-11-22T06:35:34.873Z,100.00
2018-11-22T06:38:06.105Z,100.00
2018-11-22T06:40:37.316Z,100.00
2018-11-22T06:43:08.555Z,100.00
2018-11-22T06:45:39.748Z,100.00
2018-11-22T06:48:10.950Z,100.00
2018-11-22T06:50:42.225Z,100.00
2018-11-22T06:53:13.450Z,100.00
2018-11-22T06:55:47.849Z,100.00
2018-11-22T06:58:15.920Z,100.00
2018-11-22T07:00:47.225Z,100.00
2018-11-22T07:03:18.531Z,100.00
2018-11-22T07:05:49.811Z,100.00
2018-11-22T07:08:21.100Z,100.00
2018-11-22T07:10:52.290Z,100.00
2018-11-22T07:13:23.616Z,100.00
2018-11-22T07:15:54.922Z,100.00
2018-11-22T07:18:27.292Z,100.00
2018-11-22T07:20:58.512Z,100.00
2018-11-22T07:23:29.747Z,100.00
2018-11-22T07:26:00.958Z,96.37
2018-11-22T07:28:32.169Z,95.63
2018-11-22T07:31:03.371Z,92.43
2018-11-22T07:33:38.264Z,93.33
2018-11-22T07:36:05.734Z,90.75
2018-11-22T07:38:36.871Z,86.31
2018-11-22T07:41:08.223Z,81.41
2018-11-22T07:43:39.514Z,81.58
2018-11-22T07:46:10.750Z,78.17
2018-11-22T07:48:41.954Z,79.60
2018-11-22T07:51:13.170Z,79.87
2018-11-22T07:53:45.404Z,78.93
2018-11-22T07:56:16.584Z,78.68
2018-11-22T07:58:47.771Z,74.05
2018-11-22T08:01:19.027Z,77.11
2018-11-22T08:03:50.283Z,79.68
2018-11-22T08:06:21.498Z,77.31
2018-11-22T08:08:52.686Z,77.56
2018-11-22T08:11:24.365Z,77.59
2018-11-22T08:13:55.672Z,78.57
2018-11-22T08:16:26.854Z,75.66
2018-11-22T08:18:58.067Z,74.30
2018-11-22T08:21:29.264Z,74.00
2018-11-22T08:24:00.493Z,74.53
2018-11-22T08:26:31.804Z,73.19
2018-11-22T08:29:04.230Z,71.29
2018-11-22T08:31:35.506Z,66.66
2018-11-22T08:34:06.802Z,59.07
2018-11-22T08:36:38.013Z,60.28
2018-11-22T08:39:11.377Z,65.57
2018-11-22T08:44:13.137Z,63.14
2018-11-22T08:46:44.387Z,60.87
2018-11-22T08:49:15.600Z,58.31
2018-11-22T08:51:46.808Z,55.00
2018-11-22T08:54:17.996Z,52.25
2018-11-22T08:56:49.324Z,55.77
2018-11-22T08:59:20.528Z,57.56
2018-11-22T09:01:51.751Z,62.86
2018-11-22T09:06:53.322Z,58.64
2018-11-22T09:09:24.597Z,59.56
2018-11-22T09:11:55.772Z,53.99
2018-11-22T09:14:27.070Z,55.02
2018-11-22T09:16:58.335Z,57.15
2018-11-22T09:19:29.541Z,61.56
2018-11-22T09:22:01.384Z,59.01
2018-11-22T09:24:32.568Z,57.73
2018-11-22T09:27:03.794Z,56.07
2018-11-22T09:29:39.497Z,62.28
2018-11-22T09:32:07.279Z,58.45
2018-11-22T09:34:38.492Z,57.00
2018-11-22T09:37:09.746Z,58.51
2018-11-22T09:39:41.168Z,60.43
2018-11-22T09:42:12.665Z,58.31
2018-11-22T09:44:43.928Z,51.64
2018-11-22T09:47:15.120Z,57.31
2018-11-22T09:49:46.356Z,59.06
2018-11-22T09:52:17.539Z,62.66
2018-11-22T09:54:48.761Z,63.80
2018-11-22T09:57:19.979Z,66.21
2018-11-22T09:59:51.196Z,62.93
2018-11-22T10:02:22.391Z,61.03
2018-11-22T10:04:53.795Z,63.29
2018-11-22T10:07:25.167Z,62.59
2018-11-22T10:09:56.441Z,63.33
2018-11-22T10:12:27.824Z,63.34
2018-11-22T10:14:59.540Z,62.87
2018-11-22T10:17:30.721Z,57.85
2018-11-22T10:20:01.897Z,55.96
2018-11-22T10:22:33.223Z,56.54
2018-11-22T10:25:04.565Z,60.51
2018-11-22T10:27:35.783Z,61.53
2018-11-22T10:30:14.839Z,61.54
2018-11-22T10:32:53.136Z,61.61
2018-11-22T10:35:25.838Z,57.36
2018-11-22T10:37:57.376Z,60.64
2018-11-22T10:40:28.945Z,58.09
2018-11-22T10:45:34.788Z,49.44
2018-11-22T10:48:08.003Z,38.49
2018-11-22T10:50:39.369Z,32.74
2018-11-22T10:53:10.545Z,40.33
2018-11-22T10:55:43.264Z,41.32
2018-11-22T10:58:14.351Z,43.56
2018-11-22T11:01:02.695Z,45.00
2018-11-22T11:03:43.013Z,46.46
2018-11-22T11:06:31.809Z,43.11
2018-11-22T11:09:03.140Z,40.69
2018-11-22T11:11:34.282Z,39.66
2018-11-22T11:14:05.476Z,42.45
2018-11-22T11:16:36.654Z,43.57
2018-11-22T11:19:07.976Z,45.73
2018-11-22T11:21:39.145Z,44.27
2018-11-22T11:24:10.320Z,44.25
2018-11-22T11:26:41.403Z,39.95
2018-11-22T11:29:12.842Z,42.85
2018-11-22T11:31:44.242Z,44.24
2018-11-22T11:34:15.400Z,44.64
2018-11-22T11:36:46.473Z,42.99
2018-11-22T11:39:17.567Z,45.75
2018-11-22T11:41:48.726Z,44.95
2018-11-22T11:44:19.912Z,39.35
2018-11-22T11:46:51.088Z,43.37
2018-11-22T11:49:22.910Z,42.79
2018-11-22T11:51:54.113Z,44.25
2018-11-22T11:54:25.093Z,46.19
2018-11-22T11:56:56.270Z,37.58
2018-11-22T11:59:27.414Z,39.84
2018-11-22T12:01:58.513Z,42.76
2018-11-22T12:04:29.683Z,43.31
2018-11-22T12:07:01.790Z,43.77
2018-11-22T12:09:32.849Z,44.06
2018-11-22T12:12:03.913Z,42.40
2018-11-22T12:14:35.013Z,41.58
2018-11-22T12:17:06.121Z,42.96
2018-11-22T12:19:37.243Z,46.96
2018-11-22T12:22:08.573Z,47.35
2018-11-22T12:24:41.000Z,48.38
2018-11-22T12:27:12.096Z,47.44
2018-11-22T12:29:43.163Z,49.41
2018-11-22T12:32:31.182Z,50.60
2018-11-22T12:35:39.561Z,49.95
2018-11-22T12:38:27.664Z,50.85
2018-11-22T12:40:58.814Z,49.74
2018-11-22T12:43:30.034Z,48.67
2018-11-22T12:46:01.160Z,48.64
2018-11-22T12:48:32.467Z,48.63
2018-11-22T12:51:03.662Z,43.83
2018-11-22T12:53:34.656Z,47.18
2018-11-22T12:56:05.923Z,49.63
2018-11-22T12:58:37.362Z,48.39
2018-11-22T13:01:08.844Z,50.55
2018-11-22T13:03:40.041Z,51.70
2018-11-22T13:06:11.461Z,53.75
2018-11-22T13:08:42.638Z,54.41
2018-11-22T13:11:13.835Z,53.59
2018-11-22T13:13:45.237Z,46.45
2018-11-22T13:16:16.506Z,42.79
2018-11-22T13:18:47.735Z,41.74
2018-11-22T13:21:18.937Z,43.07
2018-11-22T13:23:50.363Z,43.41
2018-11-22T13:26:21.575Z,45.55
2018-11-22T13:28:52.858Z,46.08
2018-11-22T13:31:24.034Z,45.13
2018-11-22T13:33:55.224Z,44.27
2018-11-22T13:36:26.445Z,42.65
2018-11-22T13:38:57.640Z,45.37
2018-11-22T13:41:29.309Z,45.69
2018-11-22T13:44:00.517Z,45.66
2018-11-22T13:46:31.697Z,45.03
2018-11-22T13:49:02.893Z,44.37
2018-11-22T13:51:34.146Z,45.31
2018-11-22T13:54:05.329Z,46.74
2018-11-22T13:56:36.614Z,45.92
2018-11-22T13:59:58.164Z,53.05
2018-11-22T14:02:22.234Z,54.54
2018-11-22T14:04:51.547Z,55.50
2018-11-22T14:07:20.891Z,57.88
2018-11-22T14:09:50.210Z,63.38
2018-11-22T14:12:19.542Z,66.63
2018-11-22T14:14:48.871Z,70.87
2018-11-22T14:17:18.210Z,73.05
2018-11-22T14:19:47.509Z,74.81
2018-11-22T14:22:16.751Z,75.88
2018-11-22T14:24:46.041Z,77.23
2018-11-22T14:27:15.320Z,78.61
2018-11-22T14:29:44.691Z,78.23
2018-11-22T14:32:14.043Z,79.20
2018-11-22T14:34:43.382Z,80.25
2018-11-22T14:37:12.812Z,80.32
2018-11-22T14:39:42.179Z,80.83
2018-11-22T14:42:11.508Z,80.40
2018-11-22T14:44:40.888Z,81.79
2018-11-22T14:47:10.258Z,82.57
2018-11-22T14:49:39.612Z,82.37
2018-11-22T14:52:09.050Z,82.45
2018-11-22T14:54:38.424Z,83.13
2018-11-22T14:57:07.829Z,83.66
2018-11-22T14:59:37.199Z,83.54
2018-11-22T15:02:06.586Z,84.15
2018-11-22T15:04:35.921Z,84.65
2018-11-22T15:07:05.410Z,84.14
2018-11-22T15:09:34.754Z,83.89
2018-11-22T15:12:04.082Z,85.11
2018-11-22T15:14:33.421Z,86.13
2018-11-22T15:17:02.746Z,87.16
2018-11-22T15:19:32.110Z,87.05
2018-11-22T15:22:01.415Z,87.72
2018-11-22T15:24:30.722Z,87.29
2018-11-22T15:27:00.040Z,88.18
2018-11-22T15:29:29.327Z,87.65
2018-11-22T15:31:59.010Z,88.28
2018-11-22T15:34:28.327Z,88.57
2018-11-22T15:36:57.691Z,89.18
2018-11-22T15:39:27.043Z,90.47
2018-11-22T15:41:56.362Z,90.26
2018-11-22T15:44:25.698Z,90.54
2018-11-22T15:46:55.023Z,90.22
2018-11-22T15:49:24.379Z,90.61
2018-11-22T15:51:53.720Z,89.62
2018-11-22T15:54:23.068Z,90.59
2018-11-22T15:56:52.379Z,90.58
2018-11-22T15:59:21.747Z,91.38
2018-11-22T16:01:51.371Z,91.99
2018-11-22T16:04:20.703Z,92.80
2018-11-22T16:06:50.083Z,94.01
2018-11-22T16:09:19.735Z,95.50
2018-11-22T16:11:49.103Z,95.55
2018-11-22T16:14:18.430Z,95.73
2018-11-22T16:16:47.806Z,96.10
2018-11-22T16:19:17.143Z,96.52
2018-11-22T16:21:46.525Z,96.87
2018-11-22T16:24:15.884Z,97.00
2018-11-22T16:26:45.235Z,96.24
2018-11-22T16:29:14.606Z,96.67
2018-11-22T16:31:43.938Z,97.52
2018-11-22T16:34:13.299Z,97.88
2018-11-22T16:36:42.651Z,98.05
2018-11-22T16:39:12.036Z,98.73
2018-11-22T16:41:41.358Z,98.54
2018-11-22T16:44:10.687Z,99.24
2018-11-22T16:46:40.294Z,99.32
2018-11-22T16:49:09.627Z,100.00
2018-11-22T16:51:38.944Z,99.78
2018-11-22T16:54:08.288Z,100.00
2018-11-22T16:56:37.640Z,99.82
2018-11-22T16:59:07.023Z,99.92
2018-11-22T17:01:36.344Z,99.85
2018-11-22T17:04:05.995Z,99.87
2018-11-22T17:06:35.350Z,100.00
2018-11-22T17:09:06.386Z,100.00
2018-11-22T17:11:36.467Z,100.00
2018-11-22T17:14:06.616Z,100.00
2018-11-22T17:16:36.136Z,100.00
2018-11-22T17:19:05.463Z,99.85
2018-11-22T17:21:35.106Z,100.00
2018-11-22T17:24:04.883Z,100.00
2018-11-22T17:26:34.261Z,100.00
2018-11-22T17:29:03.618Z,100.00
2018-11-22T17:31:33.140Z,100.00
2018-11-22T17:34:02.496Z,100.00
2018-11-22T17:36:32.868Z,100.00
2018-11-22T17:39:02.466Z,100.00
2018-11-22T17:41:31.880Z,100.00
2018-11-22T17:44:01.228Z,100.00
2018-11-22T17:46:30.597Z,100.00
2018-11-22T17:49:01.234Z,100.00
2018-11-22T17:51:30.563Z,100.00
2018-11-22T17:54:00.012Z,100.00
2018-11-22T17:56:29.663Z,100.00
2018-11-22T17:58:59.030Z,100.00
2018-11-22T18:01:29.683Z,100.00
2018-11-22T18:03:59.064Z,99.98
2018-11-22T18:06:28.682Z,100.00
2018-11-22T18:08:58.071Z,100.00
2018-11-22T18:11:27.411Z,100.00
2018-11-22T18:18:55.176Z,100.00
2018-11-22T18:21:24.520Z,100.00
2018-11-22T18:23:53.936Z,100.00
2018-11-22T18:26:23.318Z,100.00
2018-11-22T18:28:52.740Z,100.00
2018-11-22T18:31:22.074Z,100.00
2018-11-22T18:33:51.459Z,100.00
2018-11-22T18:36:22.119Z,100.00
2018-11-22T18:38:54.495Z,100.00
2018-11-22T18:41:23.847Z,100.00
2018-11-22T18:43:53.190Z,100.00
2018-11-22T18:46:22.572Z,100.00
2018-11-22T18:48:51.987Z,100.00
2018-11-22T18:51:21.322Z,100.00
2018-11-22T18:53:50.716Z,100.00
2018-11-22T18:56:20.095Z,100.00
2018-11-22T18:58:49.450Z,100.00
2018-11-22T19:01:18.815Z,100.00
2018-11-22T19:03:48.174Z,100.00
2018-11-22T19:06:17.516Z,100.00
2018-11-22T19:08:47.143Z,100.00
2018-11-22T19:11:16.470Z,100.00
2018-11-22T19:13:45.802Z,100.00
2018-11-22T19:16:15.155Z,100.00
2018-11-22T19:18:44.513Z,100.00
2018-11-22T19:21:13.886Z,100.00
2018-11-22T19:23:43.230Z,100.00
2018-11-22T19:26:12.586Z,100.00
2018-11-22T19:28:42.044Z,100.00
2018-11-22T19:31:11.423Z,100.00
2018-11-22T19:33:40.781Z,100.00
2018-11-22T19:36:10.171Z,100.00
2018-11-22T19:38:39.535Z,100.00
2018-11-22T19:41:08.903Z,100.00
2018-11-22T19:43:38.251Z,100.00
2018-11-22T19:46:07.647Z,100.00
2018-11-22T19:48:36.970Z,100.00
2018-11-22T19:51:06.504Z,100.00
2018-11-22T19:53:35.882Z,100.00
2018-11-22T19:56:05.259Z,100.00
2018-11-22T19:58:34.624Z,100.00
2018-11-22T20:01:07.749Z,100.00
2018-11-22T20:03:33.460Z,100.00
2018-11-22T20:06:02.780Z,100.00
2018-11-22T20:08:32.141Z,100.00
2018-11-22T20:11:01.498Z,100.00
2018-11-22T20:13:30.899Z,100.00
2018-11-22T20:16:00.243Z,100.00
2018-11-22T20:18:29.600Z,100.00
2018-11-22T20:20:58.983Z,100.00
2018-11-22T20:23:28.334Z,100.00
2018-11-22T20:25:57.755Z,100.00
2018-11-22T20:28:27.097Z,100.00
2018-11-22T20:30:56.463Z,100.00
2018-11-22T20:35:52.451Z,100.00
2018-11-22T20:38:21.811Z,100.00
2018-11-22T20:40:57.258Z,100.00
2018-11-22T20:43:21.936Z,100.00
2018-11-22T20:45:51.282Z,100.00
2018-11-22T20:48:20.899Z,100.00
2018-11-22T20:50:50.227Z,100.00
2018-11-22T20:53:19.608Z,100.00
2018-11-22T20:55:48.991Z,100.00
2018-11-22T20:58:18.400Z,100.00
2018-11-22T21:00:47.776Z,100.00
2018-11-22T21:03:17.123Z,100.00
2018-11-22T21:05:46.467Z,100.00
2018-11-22T21:08:15.814Z,100.00
2018-11-22T21:10:45.201Z,100.00
2018-11-22T21:13:14.537Z,100.00
2018-11-22T21:15:43.955Z,100.00
2018-11-22T21:18:13.312Z,100.00
2018-11-22T21:20:42.813Z,100.00
2018-11-22T21:23:12.442Z,100.00
2018-11-22T21:25:41.762Z,100.00
2018-11-22T21:28:11.077Z,100.00
2018-11-22T21:30:40.881Z,100.00
2018-11-22T21:33:10.209Z,100.00
2018-11-22T21:35:39.591Z,100.00
2018-11-22T21:38:09.410Z,100.00
2018-11-22T21:40:39.955Z,100.00
2018-11-22T21:43:09.319Z,100.00
2018-11-22T21:45:38.727Z,100.00
2018-11-22T21:48:08.115Z,100.00
2018-11-22T21:50:37.513Z,100.00
2018-11-22T21:53:08.418Z,100.00
2018-11-22T21:55:37.795Z,100.00
2018-11-22T21:58:07.174Z,100.00
2018-11-22T22:00:39.355Z,100.00
2018-11-22T22:03:10.272Z,100.00
2018-11-22T22:05:40.210Z,100.00
2018-11-22T22:08:09.610Z,100.00
2018-11-22T22:10:38.991Z,100.00
2018-11-22T22:13:08.402Z,100.00
2018-11-22T22:15:38.222Z,100.00
2018-11-22T22:18:08.852Z,100.00
2018-11-22T22:20:38.426Z,100.00
2018-11-22T22:23:13.188Z,100.00
2018-11-22T22:25:37.330Z,100.00
2018-11-22T22:28:06.645Z,100.00
2018-11-22T22:30:36.085Z,100.00
2018-11-22T22:33:06.674Z,100.00
2018-11-22T22:35:36.094Z,100.00
2018-11-22T22:38:05.568Z,100.00
2018-11-22T22:40:41.232Z,100.00
2018-11-22T22:43:10.603Z,100.00
2018-11-22T22:45:39.925Z,100.00
2018-11-22T22:48:10.066Z,100.00
2018-11-22T22:50:39.431Z,100.00
2018-11-22T22:53:08.816Z,100.00
2018-11-22T22:55:38.152Z,100.00
2018-11-22T22:58:07.561Z,100.00
2018-11-22T23:00:41.213Z,100.00
2018-11-22T23:03:10.622Z,100.00
2018-11-22T23:05:40.024Z,100.00
2018-11-22T23:08:09.416Z,100.00
2018-11-22T23:10:38.784Z,100.00
2018-11-22T23:13:08.395Z,100.00
2018-11-22T23:15:37.758Z,100.00
2018-11-22T23:18:07.189Z,100.00
2018-11-22T23:20:37.597Z,100.00
2018-11-22T23:23:06.967Z,100.00
2018-11-22T23:25:36.314Z,100.00
2018-11-22T23:28:05.708Z,100.00
2018-11-22T23:30:35.810Z,100.00
2018-11-22T23:33:06.520Z,100.00
2018-11-22T23:35:35.940Z,100.00
2018-11-22T23:38:05.376Z,100.00
2018-11-22T23:40:36.048Z,100.00
2018-11-22T23:43:06.198Z,100.00
2018-11-22T23:45:35.155Z,100.00
2018-11-22T23:48:04.596Z,100.00
2018-11-22T23:50:34.428Z,100.00
2018-11-22T23:53:04.763Z,100.00
2018-11-22T23:55:34.139Z,100.00
2018-11-22T23:58:03.478Z,100.00
